Time;durP1;ratioP1;P1;durP2;ratioP2;P2;SDS_P1;SDS_P2;PMS_P1;PMS_P2;Temp;Humidity;BMP_temperature;BMP_pressure;BME280_temperature;BME280_humidity;BME280_pressure;Samples;Min_cycle;Max_cycle;Signal;HPM_P1;HPM_P2
2023/06/29 00:00:17;;;;;;;9.90;5.50;;;20.40;61.80;;;;;;6034256;23;20058;-75
2023/06/29 00:02:43;;;;;;;5.15;3.83;;;20.40;61.00;;;;;;6034228;23;20025;-76
2023/06/29 00:05:09;;;;;;;6.70;4.47;;;20.40;62.40;;;;;;6034237;23;20407;-75
2023/06/29 00:07:35;;;;;;;5.07;4.13;;;20.40;62.50;;;;;;6034562;23;20015;-76
2023/06/29 00:10:00;;;;;;;11.55;5.25;;;20.40;63.10;;;;;;6058402;23;20034;-76
2023/06/29 00:12:27;;;;;;;7.95;4.85;;;20.30;62.20;;;;;;6034474;23;20022;-76
2023/06/29 00:14:52;;;;;;;7.03;4.32;;;20.30;61.60;;;;;;6034102;23;20472;-76
2023/06/29 00:17:19;;;;;;;6.20;4.35;;;20.30;61.80;;;;;;6010497;23;20014;-76
2023/06/29 00:19:45;;;;;;;9.40;5.32;;;20.30;61.70;;;;;;6058263;23;20010;-76
2023/06/29 00:22:10;;;;;;;8.73;5.05;;;20.30;61.60;;;;;;6058198;23;20030;-76
2023/06/29 00:24:43;;;;;;;8.55;5.57;;;20.20;61.50;;;;;;6034245;23;20018;-76
2023/06/29 00:27:12;;;;;;;15.68;5.55;;;20.10;62.30;;;;;;6012431;23;20086;-77
2023/06/29 00:29:40;;;;;;;11.27;5.18;;;20.20;62.70;;;;;;6010553;23;20011;-76
2023/06/29 00:32:06;;;;;;;10.32;4.80;;;20.20;63.70;;;;;;6009689;23;20086;-77
2023/06/29 00:34:32;;;;;;;12.48;4.45;;;20.20;65.30;;;;;;6058258;23;20078;-77
2023/06/29 00:36:58;;;;;;;6.93;5.25;;;20.10;64.90;;;;;;6057192;23;20453;-77
2023/06/29 00:39:23;;;;;;;6.45;4.57;;;20.10;65.00;;;;;;6034001;23;20023;-77
2023/06/29 00:41:53;;;;;;;6.63;3.38;;;20.10;65.70;;;;;;6033469;23;20125;-77
2023/06/29 00:44:18;;;;;;;8.02;4.88;;;20.10;64.90;;;;;;6033712;23;20023;-77
2023/06/29 00:46:44;;;;;;;4.10;3.10;;;20.10;63.90;;;;;;6057678;23;20070;-77
2023/06/29 00:49:09;;;;;;;10.80;3.95;;;20.10;64.20;;;;;;6034510;23;20105;-77
2023/06/29 00:51:35;;;;;;;8.27;3.47;;;20.10;64.00;;;;;;6058093;23;20022;-77
2023/06/29 00:54:01;;;;;;;5.63;3.85;;;20.10;63.80;;;;;;6034495;23;20094;-77
2023/06/29 00:56:26;;;;;;;5.65;3.33;;;20.20;65.20;;;;;;6034019;23;20383;-77
2023/06/29 00:58:52;;;;;;;8.32;3.83;;;20.20;65.80;;;;;;6010447;23;20086;-77
2023/06/29 01:01:17;;;;;;;6.85;3.95;;;20.20;66.80;;;;;;6034074;23;20014;-77
2023/06/29 01:03:43;;;;;;;8.50;4.35;;;20.20;65.40;;;;;;6010803;23;20014;-77
2023/06/29 01:06:10;;;;;;;12.38;4.90;;;20.20;65.80;;;;;;6033658;23;20091;-78
2023/06/29 01:08:38;;;;;;;6.95;4.28;;;20.10;64.60;;;;;;6010208;23;20011;-77
2023/06/29 01:11:03;;;;;;;9.05;5.35;;;20.10;65.90;;;;;;6059132;23;20345;-77
2023/06/29 01:13:29;;;;;;;11.18;5.43;;;20.00;64.70;;;;;;6012494;23;20011;-77
2023/06/29 01:15:55;;;;;;;5.15;2.83;;;20.10;64.60;;;;;;6035407;23;20023;-77
2023/06/29 01:18:20;;;;;;;8.88;5.50;;;20.00;64.50;;;;;;6036124;23;20446;-77
2023/06/29 01:20:49;;;;;;;4.43;3.42;;;20.10;65.10;;;;;;6036122;23;20437;-77
2023/06/29 01:23:18;;;;;;;11.43;5.00;;;20.00;65.10;;;;;;6059531;23;20022;-77
2023/06/29 01:25:44;;;;;;;8.55;4.43;;;20.00;65.10;;;;;;6012065;23;20126;-77
2023/06/29 01:28:10;;;;;;;7.72;4.53;;;20.00;65.80;;;;;;6011890;23;20417;-77
2023/06/29 01:30:39;;;;;;;12.23;4.72;;;20.10;67.20;;;;;;6012117;23;20034;-77
2023/06/29 01:33:05;;;;;;;7.93;4.07;;;20.10;66.90;;;;;;6036332;23;20457;-77
2023/06/29 01:35:31;;;;;;;7.13;4.10;;;20.10;66.00;;;;;;6012605;23;20125;-78
2023/06/29 01:37:59;;;;;;;5.72;3.88;;;20.10;67.00;;;;;;6034970;23;20434;-77
2023/06/29 01:40:30;;;;;;;8.15;4.50;;;20.10;67.60;;;;;;6035697;23;20046;-77
2023/06/29 01:42:56;;;;;;;6.90;4.10;;;20.10;68.60;;;;;;6059084;23;20319;-77
2023/06/29 01:45:22;;;;;;;7.80;4.07;;;20.10;68.40;;;;;;6035754;23;20030;-77
2023/06/29 01:47:47;;;;;;;4.47;3.33;;;20.10;67.50;;;;;;6035608;23;20015;-77
2023/06/29 01:50:14;;;;;;;8.95;4.78;;;20.10;68.00;;;;;;6035810;23;20074;-77
2023/06/29 01:52:40;;;;;;;5.88;3.78;;;20.10;69.40;;;;;;6035926;23;20198;-76
2023/06/29 01:55:09;;;;;;;8.10;4.05;;;20.10;68.50;;;;;;6059258;23;20113;-76
2023/06/29 01:57:34;;;;;;;11.10;5.28;;;20.10;69.10;;;;;;6036071;23;20334;-75
2023/06/29 02:00:00;;;;;;;9.57;5.32;;;20.10;68.90;;;;;;5994531;23;20091;-76
2023/06/29 02:02:25;;;;;;;7.32;4.72;;;19.90;67.10;;;;;;5988664;23;20019;-75
2023/06/29 02:04:51;;;;;;;9.32;4.20;;;19.90;67.40;;;;;;6035267;23;20517;-75
2023/06/29 02:07:16;;;;;;;8.85;4.88;;;19.90;69.30;;;;;;6034724;23;20473;-75
2023/06/29 02:09:43;;;;;;;7.13;4.25;;;19.90;69.30;;;;;;5988503;23;20442;-76
2023/06/29 02:12:09;;;;;;;6.13;4.50;;;20.00;70.10;;;;;;6011571;23;20015;-76
2023/06/29 02:14:35;;;;;;;11.88;5.15;;;19.90;69.20;;;;;;6036067;23;20390;-75
2023/06/29 02:17:00;;;;;;;8.00;4.55;;;19.90;69.20;;;;;;5987760;23;20022;-76
2023/06/29 02:19:26;;;;;;;8.80;4.93;;;20.00;70.20;;;;;;6058533;23;20434;-76
2023/06/29 02:21:51;;;;;;;7.70;4.22;;;19.90;68.00;;;;;;6057940;23;20015;-76
2023/06/29 02:24:17;;;;;;;4.32;3.35;;;19.90;68.00;;;;;;6035238;23;20082;-76
2023/06/29 02:26:42;;;;;;;6.93;5.07;;;19.90;68.60;;;;;;6058921;23;20067;-75
2023/06/29 02:29:08;;;;;;;12.70;5.18;;;19.90;67.80;;;;;;6035723;23;20048;-76
2023/06/29 02:31:34;;;;;;;10.93;5.50;;;19.80;67.50;;;;;;6035479;23;20071;-76
2023/06/29 02:33:59;;;;;;;12.88;5.45;;;19.80;67.10;;;;;;6035027;23;20041;-75
2023/06/29 02:36:25;;;;;;;14.75;7.10;;;19.80;67.50;;;;;;6058197;23;20019;-76
2023/06/29 02:38:50;;;;;;;13.70;6.30;;;19.80;67.90;;;;;;6034786;23;20021;-76
2023/06/29 02:41:16;;;;;;;7.45;5.30;;;19.80;71.60;;;;;;6011676;23;20029;-77
2023/06/29 02:43:41;;;;;;;5.05;4.13;;;19.70;68.30;;;;;;6035221;23;20488;-76
2023/06/29 02:46:07;;;;;;;12.55;6.05;;;19.80;68.00;;;;;;6058660;23;20078;-76
2023/06/29 02:48:32;;;;;;;6.65;4.10;;;19.80;69.70;;;;;;6060101;23;20011;-76
2023/06/29 02:50:58;;;;;;;9.45;4.90;;;19.80;68.20;;;;;;6058897;23;20031;-76
2023/06/29 02:53:23;;;;;;;11.77;6.32;;;19.70;67.60;;;;;;6060752;23;20438;-76
2023/06/29 02:55:49;;;;;;;9.60;5.60;;;19.60;68.70;;;;;;6058474;23;20338;-76
2023/06/29 02:58:14;;;;;;;7.57;5.15;;;19.60;67.60;;;;;;6058862;23;20041;-76
2023/06/29 03:00:40;;;;;;;5.25;4.03;;;19.60;67.60;;;;;;6034895;23;20349;-76
2023/06/29 03:03:05;;;;;;;5.53;3.97;;;19.60;67.40;;;;;;6035635;23;20007;-75
2023/06/29 03:05:31;;;;;;;4.25;3.58;;;19.60;67.90;;;;;;6034803;23;20007;-76
2023/06/29 03:07:56;;;;;;;9.15;5.13;;;19.60;68.70;;;;;;6010808;23;20018;-76
2023/06/29 03:10:22;;;;;;;8.32;4.45;;;19.70;68.80;;;;;;6011042;23;20023;-75
2023/06/29 03:12:47;;;;;;;7.88;5.22;;;19.70;70.00;;;;;;6058717;23;20046;-75
2023/06/29 03:15:13;;;;;;;8.32;5.65;;;19.80;71.20;;;;;;6058535;23;20046;-75
2023/06/29 03:17:39;;;;;;;10.88;6.05;;;19.70;69.80;;;;;;6034625;23;20018;-77
2023/06/29 03:20:06;;;;;;;7.60;4.85;;;19.60;68.90;;;;;;6035509;23;20015;-76
2023/06/29 03:22:32;;;;;;;12.20;6.15;;;19.60;69.80;;;;;;6035554;23;20053;-76
2023/06/29 03:24:58;;;;;;;5.97;3.70;;;19.60;71.10;;;;;;6058869;23;20468;-76
2023/06/29 03:27:23;;;;;;;8.38;4.68;;;19.60;70.10;;;;;;6032061;23;20011;-75
2023/06/29 03:29:49;;;;;;;5.35;3.70;;;19.60;71.50;;;;;;6034803;23;20449;-76
2023/06/29 03:38:59;;;;;;;7.38;4.18;;;19.60;70.00;;;;;;6025395;23;20014;-76
2023/06/29 03:41:25;;;;;;;5.22;4.03;;;19.50;69.30;;;;;;6032157;23;20018;-75
2023/06/29 03:43:50;;;;;;;8.10;5.25;;;19.50;71.00;;;;;;6055907;23;20139;-75
2023/06/29 03:46:16;;;;;;;10.27;5.75;;;19.60;71.00;;;;;;6054333;23;20479;-75
2023/06/29 03:48:41;;;;;;;9.25;4.78;;;19.60;71.70;;;;;;6056134;23;20015;-75
2023/06/29 03:51:07;;;;;;;8.40;4.65;;;19.60;71.40;;;;;;6032106;23;20021;-76
2023/06/29 03:53:32;;;;;;;8.27;4.38;;;19.60;71.10;;;;;;6056765;23;20003;-77
2023/06/29 03:55:58;;;;;;;6.10;3.60;;;19.70;71.90;;;;;;6032629;23;20026;-76
2023/06/29 03:58:23;;;;;;;7.68;4.75;;;19.80;70.50;;;;;;6055505;23;20086;-76
2023/06/29 04:00:50;;;;;;;4.88;3.70;;;19.80;71.70;;;;;;6055779;23;20461;-76
2023/06/29 04:03:16;;;;;;;6.43;4.60;;;19.70;70.10;;;;;;6032055;23;20043;-75
2023/06/29 04:05:41;;;;;;;11.93;5.75;;;19.70;69.80;;;;;;6054784;23;20457;-75
2023/06/29 04:08:07;;;;;;;10.25;5.30;;;19.80;69.60;;;;;;6055726;23;20019;-75
2023/06/29 04:10:33;;;;;;;6.65;4.07;;;19.80;72.30;;;;;;6031585;23;20055;-76
2023/06/29 04:12:58;;;;;;;6.15;4.38;;;19.80;70.70;;;;;;6032821;23;20010;-76
2023/06/29 04:15:24;;;;;;;6.30;4.45;;;19.90;70.60;;;;;;6055469;23;20034;-76
2023/06/29 04:17:49;;;;;;;7.13;4.22;;;19.90;71.20;;;;;;6055864;23;20433;-76
2023/06/29 04:20:15;;;;;;;6.50;4.82;;;20.10;70.80;;;;;;6055957;23;20327;-76
2023/06/29 04:22:41;;;;;;;4.32;3.92;;;20.00;69.70;;;;;;6055923;23;20014;-76
2023/06/29 04:25:06;;;;;;;8.05;4.50;;;20.00;68.90;;;;;;6056100;23;20081;-76
2023/06/29 04:27:34;;;;;;;6.93;3.67;;;20.00;71.70;;;;;;6056623;23;20034;-75
2023/06/29 04:30:03;;;;;;;6.68;4.50;;;20.10;70.10;;;;;;6056975;23;20011;-75
2023/06/29 04:32:28;;;;;;;5.75;4.35;;;20.10;72.30;;;;;;6056967;23;20015;-76
2023/06/29 04:34:54;;;;;;;5.53;4.00;;;20.10;72.00;;;;;;6056075;23;20070;-76
2023/06/29 04:37:19;;;;;;;8.98;4.63;;;20.10;70.80;;;;;;6031830;23;20014;-77
2023/06/29 04:39:45;;;;;;;5.85;4.13;;;20.20;70.20;;;;;;6056706;23;20010;-76
2023/06/29 04:42:13;;;;;;;5.72;4.20;;;20.10;68.70;;;;;;6056368;23;20038;-76
2023/06/29 04:44:39;;;;;;;8.38;4.03;;;20.20;68.60;;;;;;6056767;23;20023;-76
2023/06/29 04:47:05;;;;;;;7.63;4.70;;;20.20;68.00;;;;;;6056233;23;20021;-77
2023/06/29 04:49:37;;;;;;;8.02;4.50;;;20.20;68.10;;;;;;6032889;23;20090;-76
2023/06/29 04:52:06;;;;;;;8.57;5.07;;;20.20;67.50;;;;;;6056392;23;20019;-76
2023/06/29 04:54:32;;;;;;;9.93;5.40;;;20.20;67.30;;;;;;6056371;23;20464;-76
2023/06/29 04:56:57;;;;;;;9.05;5.00;;;20.30;67.00;;;;;;6055811;23;20015;-76
2023/06/29 04:59:24;;;;;;;6.53;4.28;;;20.30;66.70;;;;;;6055941;23;20022;-76
2023/06/29 05:01:49;;;;;;;7.60;4.90;;;20.30;66.60;;;;;;6055487;23;20049;-76
2023/06/29 05:04:15;;;;;;;8.52;5.50;;;20.30;66.50;;;;;;6055141;23;20007;-76
2023/06/29 05:06:40;;;;;;;9.05;6.07;;;20.30;66.70;;;;;;6054847;23;20501;-77
2023/06/29 05:09:06;;;;;;;8.55;4.97;;;20.30;66.50;;;;;;6055723;23;20011;-76
2023/06/29 05:11:32;;;;;;;10.05;5.63;;;20.30;66.20;;;;;;6058069;23;20007;-76
2023/06/29 05:13:57;;;;;;;11.18;5.18;;;20.30;66.40;;;;;;6032030;23;20445;-76
2023/06/29 05:16:23;;;;;;;10.90;5.43;;;20.30;66.30;;;;;;6055440;23;20017;-76
2023/06/29 05:18:48;;;;;;;8.52;5.50;;;20.30;66.40;;;;;;6054806;23;20014;-75
2023/06/29 05:21:14;;;;;;;7.57;4.65;;;20.40;66.70;;;;;;6055089;23;20026;-76
2023/06/29 05:23:40;;;;;;;7.72;5.60;;;20.40;66.70;;;;;;6055835;23;20015;-76
2023/06/29 05:26:05;;;;;;;5.10;3.47;;;20.40;67.20;;;;;;6030995;23;20007;-75
2023/06/29 05:28:33;;;;;;;5.97;3.85;;;20.40;66.30;;;;;;6032054;23;20350;-75
2023/06/29 05:30:59;;;;;;;4.57;3.17;;;20.50;66.10;;;;;;6031930;23;20035;-75
2023/06/29 05:33:25;;;;;;;4.20;3.75;;;20.50;67.30;;;;;;6055152;23;20019;-75
2023/06/29 05:35:50;;;;;;;7.47;4.43;;;20.60;66.20;;;;;;6054807;23;20425;-76
2023/06/29 05:38:16;;;;;;;5.80;3.60;;;20.70;67.80;;;;;;6055622;23;20071;-76
2023/06/29 05:40:41;;;;;;;10.13;5.63;;;20.70;66.50;;;;;;6031367;23;20011;-76
2023/06/29 05:43:07;;;;;;;7.10;5.03;;;20.80;66.50;;;;;;6055448;23;20430;-75
2023/06/29 05:45:32;;;;;;;5.10;3.60;;;20.80;66.10;;;;;;6031953;23;20011;-76
2023/06/29 05:47:58;;;;;;;6.53;4.30;;;20.90;66.20;;;;;;6055031;23;20019;-75
2023/06/29 05:50:23;;;;;;;7.88;5.38;;;21.00;66.20;;;;;;6055749;23;20069;-76
2023/06/29 05:52:49;;;;;;;9.80;5.63;;;20.90;66.60;;;;;;6057340;23;20015;-76
2023/06/29 05:55:15;;;;;;;3.45;3.15;;;21.10;67.00;;;;;;6030727;23;20465;-76
2023/06/29 05:57:40;;;;;;;6.55;3.97;;;21.20;65.90;;;;;;6031541;23;20022;-76
2023/06/29 06:00:12;;;;;;;8.95;4.82;;;21.30;67.50;;;;;;6033683;23;20015;-76
2023/06/29 06:02:38;;;;;;;6.07;4.32;;;21.30;67.00;;;;;;6057057;23;20007;-76
2023/06/29 06:05:05;;;;;;;7.72;3.58;;;21.50;66.60;;;;;;6032806;23;20407;-76
2023/06/29 06:07:31;;;;;;;5.85;4.07;;;21.50;67.40;;;;;;6034246;23;20067;-75
2023/06/29 06:09:56;;;;;;;9.88;4.93;;;21.60;67.30;;;;;;6057140;23;20038;-75
2023/06/29 06:12:22;;;;;;;6.63;4.80;;;21.70;67.90;;;;;;6057054;23;20035;-75
2023/06/29 06:14:48;;;;;;;7.22;4.40;;;21.80;67.90;;;;;;6056585;23;20053;-75
2023/06/29 06:17:14;;;;;;;5.30;3.83;;;21.90;68.90;;;;;;6032956;23;20465;-76
2023/06/29 06:19:39;;;;;;;11.90;5.85;;;21.70;69.50;;;;;;6056337;23;20062;-76
2023/06/29 06:22:05;;;;;;;8.15;4.00;;;21.70;70.60;;;;;;6033138;23;20101;-75
2023/06/29 06:24:31;;;;;;;6.63;4.20;;;21.90;69.30;;;;;;6059163;23;20086;-75
2023/06/29 06:26:56;;;;;;;8.90;4.43;;;22.00;68.40;;;;;;6055874;23;20525;-74
2023/06/29 06:29:22;;;;;;;6.32;4.10;;;22.10;69.50;;;;;;6056955;23;20346;-75
2023/06/29 06:31:47;;;;;;;7.78;4.50;;;22.30;67.90;;;;;;6056063;23;20015;-74
2023/06/29 06:34:13;;;;;;;13.50;4.53;;;22.40;68.80;;;;;;6056251;23;20019;-74
2023/06/29 06:36:38;;;;;;;8.15;4.40;;;22.40;69.60;;;;;;6056193;23;20010;-74
2023/06/29 06:39:05;;;;;;;5.82;3.95;;;22.50;69.20;;;;;;6056597;23;20003;-76
2023/06/29 06:41:30;;;;;;;7.05;4.35;;;22.40;69.90;;;;;;6057116;23;20003;-76
2023/06/29 06:43:57;;;;;;;5.85;4.00;;;22.40;70.10;;;;;;6056141;23;20011;-77
2023/06/29 06:46:22;;;;;;;7.55;4.18;;;22.50;69.80;;;;;;6032171;23;20062;-76
2023/06/29 06:48:48;;;;;;;7.03;4.55;;;22.70;70.70;;;;;;6056487;23;20021;-76
2023/06/29 06:51:14;;;;;;;7.25;4.30;;;23.00;69.30;;;;;;6056988;23;20010;-76
2023/06/29 06:53:39;;;;;;;9.43;4.45;;;23.20;69.00;;;;;;6033099;23;20070;-76
2023/06/29 06:56:05;;;;;;;10.30;4.35;;;23.50;69.00;;;;;;6056709;23;20042;-76
2023/06/29 06:58:31;;;;;;;6.50;3.65;;;23.50;68.40;;;;;;6057696;23;20011;-76
2023/06/29 07:00:56;;;;;;;6.63;3.78;;;23.40;69.10;;;;;;6055285;23;20102;-76
2023/06/29 07:03:23;;;;;;;7.75;4.00;;;23.40;69.30;;;;;;6032551;23;20440;-75
2023/06/29 07:05:49;;;;;;;6.88;4.00;;;23.70;68.70;;;;;;6055901;23;20011;-75
2023/06/29 07:08:14;;;;;;;9.90;4.22;;;23.50;68.70;;;;;;6056265;23;20102;-76
2023/06/29 07:10:40;;;;;;;7.60;4.18;;;23.40;68.90;;;;;;6032127;23;20085;-76
2023/06/29 07:13:05;;;;;;;10.70;3.70;;;23.70;68.90;;;;;;6056512;23;20022;-76
2023/06/29 07:15:31;;;;;;;11.55;4.18;;;23.80;68.30;;;;;;6056540;23;20015;-76
2023/06/29 07:17:57;;;;;;;7.60;3.78;;;23.80;68.50;;;;;;6056091;23;20018;-75
2023/06/29 07:20:22;;;;;;;6.78;3.70;;;23.80;68.50;;;;;;6056284;23;20027;-75
2023/06/29 07:22:48;;;;;;;12.13;4.40;;;24.20;67.50;;;;;;6032576;23;20082;-76
2023/06/29 07:25:14;;;;;;;8.48;4.30;;;24.30;66.70;;;;;;6058196;23;20026;-76
2023/06/29 07:27:39;;;;;;;4.63;3.72;;;24.20;67.10;;;;;;6056425;23;20042;-76
2023/06/29 07:30:06;;;;;;;8.75;4.20;;;24.20;67.60;;;;;;6055294;23;20346;-76
2023/06/29 07:32:31;;;;;;;5.40;3.40;;;24.20;67.10;;;;;;6057286;23;20015;-76
2023/06/29 07:34:57;;;;;;;5.35;3.20;;;24.10;67.50;;;;;;6057956;23;20351;-76
2023/06/29 07:37:23;;;;;;;5.20;3.80;;;24.30;67.40;;;;;;6058026;23;20682;-76
2023/06/29 07:39:48;;;;;;;5.72;3.53;;;24.30;67.20;;;;;;6058553;23;20031;-76
2023/06/29 07:42:14;;;;;;;6.80;3.63;;;24.30;66.80;;;;;;6058394;23;20066;-75
2023/06/29 07:44:39;;;;;;;5.68;3.25;;;24.40;66.80;;;;;;6058208;23;20069;-77
2023/06/29 07:47:05;;;;;;;5.78;3.60;;;24.30;67.20;;;;;;6058216;23;20028;-76
2023/06/29 07:49:30;;;;;;;5.57;3.53;;;24.30;67.30;;;;;;6035153;23;20014;-76
2023/06/29 07:51:57;;;;;;;5.35;3.28;;;24.30;67.10;;;;;;6058052;23;20089;-76
2023/06/29 07:54:23;;;;;;;5.10;3.05;;;24.40;67.30;;;;;;6058651;23;20026;-76
2023/06/29 07:56:48;;;;;;;5.30;3.25;;;24.60;66.80;;;;;;6032109;23;20004;-76
2023/06/29 07:59:14;;;;;;;4.82;3.80;;;24.80;67.00;;;;;;6054263;23;20011;-76
2023/06/29 08:01:39;;;;;;;5.65;3.60;;;24.40;67.10;;;;;;6055808;23;20069;-76
2023/06/29 08:04:06;;;;;;;5.88;3.10;;;24.50;67.30;;;;;;6056213;23;20079;-77
2023/06/29 08:06:33;;;;;;;9.00;4.18;;;24.90;67.60;;;;;;6055861;23;20069;-76
2023/06/29 08:08:58;;;;;;;5.57;3.30;;;25.10;67.50;;;;;;6056336;23;20002;-76
2023/06/29 08:11:24;;;;;;;5.10;3.55;;;25.20;66.90;;;;;;6055476;23;20067;-76
2023/06/29 08:13:50;;;;;;;10.05;4.60;;;24.80;66.50;;;;;;6031653;23;20337;-76
2023/06/29 08:16:16;;;;;;;6.97;4.15;;;24.90;67.70;;;;;;6055105;23;20062;-76
2023/06/29 08:18:42;;;;;;;6.45;3.63;;;24.90;66.70;;;;;;6032245;23;20446;-76
2023/06/29 08:21:10;;;;;;;8.02;4.15;;;24.60;67.50;;;;;;6054988;23;20021;-76
2023/06/29 08:23:35;;;;;;;5.43;3.50;;;24.90;67.20;;;;;;6031741;23;20007;-77
2023/06/29 08:26:02;;;;;;;5.53;3.33;;;24.80;67.60;;;;;;6057970;23;20014;-76
2023/06/29 08:28:28;;;;;;;4.70;3.38;;;24.90;67.00;;;;;;6058117;23;20014;-76
2023/06/29 08:30:53;;;;;;;6.78;3.40;;;25.20;66.70;;;;;;6033680;23;20014;-76
2023/06/29 08:33:20;;;;;;;6.72;3.67;;;25.30;66.50;;;;;;6057524;23;20042;-76
2023/06/29 08:35:45;;;;;;;13.93;4.63;;;25.60;67.30;;;;;;6057154;23;20026;-76
2023/06/29 08:38:11;;;;;;;9.77;4.03;;;25.50;67.30;;;;;;6057239;23;20022;-76
2023/06/29 08:40:36;;;;;;;6.75;4.03;;;25.50;66.40;;;;;;6057816;23;20011;-76
2023/06/29 08:43:02;;;;;;;6.53;4.18;;;25.60;66.30;;;;;;6031918;23;20022;-76
2023/06/29 08:45:28;;;;;;;7.15;4.60;;;25.60;66.20;;;;;;6055324;23;20098;-75
2023/06/29 08:47:53;;;;;;;7.18;4.40;;;26.00;66.20;;;;;;6055492;23;20529;-76
2023/06/29 08:50:21;;;;;;;6.95;4.22;;;26.10;65.20;;;;;;6055673;23;20026;-76
2023/06/29 08:52:46;;;;;;;7.97;4.72;;;26.40;65.80;;;;;;6032002;23;20011;-75
2023/06/29 08:55:12;;;;;;;7.10;4.70;;;26.50;66.20;;;;;;6031693;23;20022;-76
2023/06/29 08:57:38;;;;;;;9.02;4.32;;;26.80;65.80;;;;;;6056366;23;20382;-75
2023/06/29 09:00:06;;;;;;;5.93;4.05;;;26.50;64.20;;;;;;6009350;23;20035;-76
2023/06/29 09:02:33;;;;;;;7.03;5.60;;;26.50;64.60;;;;;;6031834;23;20018;-75
2023/06/29 09:04:58;;;;;;;7.50;4.43;;;26.70;66.00;;;;;;6055828;23;20019;-74
2023/06/29 09:07:24;;;;;;;7.18;4.40;;;27.00;64.60;;;;;;6055216;23;20501;-75
2023/06/29 09:09:50;;;;;;;9.90;5.25;;;26.70;64.80;;;;;;6055770;23;20025;-75
2023/06/29 09:12:16;;;;;;;10.80;5.78;;;27.00;64.80;;;;;;6052650;23;20055;-78
2023/06/29 09:14:45;;;;;;;9.32;5.30;;;27.10;64.70;;;;;;6033847;23;20557;-78
2023/06/29 09:17:17;;;;;;;10.75;6.53;;;27.20;64.00;;;;;;6057186;23;20061;-77
2023/06/29 09:19:54;;;;;;;8.93;6.63;;;27.10;63.60;;;;;;6057640;23;20089;-76
2023/06/29 09:22:21;;;;;;;9.55;5.55;;;27.00;64.70;;;;;;6057280;23;20030;-76
2023/06/29 09:24:47;;;;;;;12.32;6.30;;;27.10;64.10;;;;;;6056293;23;20062;-78
2023/06/29 09:27:12;;;;;;;11.95;6.18;;;27.30;64.50;;;;;;6056923;23;20488;-77
2023/06/29 09:29:38;;;;;;;8.30;5.82;;;27.10;63.80;;;;;;6058041;23;20019;-77
2023/06/29 09:32:04;;;;;;;9.60;5.28;;;27.20;63.30;;;;;;6010359;23;20014;-77
2023/06/29 09:34:30;;;;;;;7.88;5.45;;;26.90;64.00;;;;;;6035504;23;20010;-75
2023/06/29 09:36:56;;;;;;;9.15;5.65;;;26.80;63.60;;;;;;6034881;23;20524;-75
2023/06/29 09:39:22;;;;;;;8.10;5.40;;;26.90;63.70;;;;;;6058831;23;20019;-77
2023/06/29 09:41:48;;;;;;;9.18;6.43;;;26.90;63.30;;;;;;6058911;23;20434;-75
2023/06/29 09:44:19;;;;;;;9.65;5.93;;;26.80;64.40;;;;;;6059249;23;20017;-76
2023/06/29 09:46:48;;;;;;;12.45;6.00;;;26.90;63.60;;;;;;6035203;23;20007;-76
2023/06/29 09:49:14;;;;;;;10.20;6.00;;;27.10;64.10;;;;;;6059253;23;20453;-76
2023/06/29 09:51:39;;;;;;;9.98;5.15;;;27.10;63.50;;;;;;6035215;23;20014;-76
2023/06/29 09:54:05;;;;;;;9.20;6.03;;;26.90;63.60;;;;;;6035944;23;20296;-76
2023/06/29 09:56:33;;;;;;;9.90;5.63;;;27.00;63.50;;;;;;6058897;23;20018;-75
2023/06/29 09:59:00;;;;;;;12.82;6.13;;;27.20;63.80;;;;;;6034891;23;20837;-76
2023/06/29 10:01:29;;;;;;;7.28;5.65;;;27.20;63.80;;;;;;6058764;23;20070;-75
2023/06/29 10:03:55;;;;;;;9.60;5.53;;;27.10;63.10;;;;;;6058995;23;20067;-75
2023/06/29 10:06:30;;;;;;;7.93;5.15;;;27.20;63.80;;;;;;6034447;23;20015;-76
2023/06/29 10:08:56;;;;;;;7.88;5.78;;;27.20;62.90;;;;;;6058741;23;20086;-75
2023/06/29 10:11:22;;;;;;;7.38;5.35;;;27.10;63.50;;;;;;6055782;23;20030;-76
2023/06/29 10:13:49;;;;;;;12.23;6.60;;;27.10;63.30;;;;;;6059053;23;20063;-75
2023/06/29 10:16:15;;;;;;;9.88;6.13;;;26.90;63.90;;;;;;6058450;23;20018;-76
2023/06/29 10:18:41;;;;;;;12.65;6.85;;;27.10;64.60;;;;;;6059210;23;20570;-76
2023/06/29 10:21:07;;;;;;;10.38;6.72;;;27.50;64.20;;;;;;6058690;23;20023;-75
2023/06/29 10:23:32;;;;;;;12.57;6.75;;;27.60;63.70;;;;;;6025015;23;20345;-75
2023/06/29 10:25:58;;;;;;;9.68;6.40;;;27.50;63.50;;;;;;6058886;23;20015;-75
2023/06/29 10:28:23;;;;;;;14.18;7.88;;;28.00;63.40;;;;;;6058779;23;20090;-75
2023/06/29 10:30:50;;;;;;;8.93;6.15;;;28.20;63.10;;;;;;6058851;23;20030;-76
2023/06/29 10:33:22;;;;;;;11.00;7.00;;;28.50;62.50;;;;;;6058670;23;20108;-76
2023/06/29 10:36:06;;;;;;;18.52;8.30;;;28.10;61.70;;;;;;6060019;23;20023;-76
2023/06/29 10:38:33;;;;;;;15.07;9.00;;;28.20;61.90;;;;;;6058383;23;20445;-77
2023/06/29 10:40:58;;;;;;;10.32;6.75;;;28.80;63.90;;;;;;6058546;23;20469;-78
2023/06/29 10:43:51;;;;;;;12.48;7.60;;;29.20;61.30;;;;;;6033586;23;20011;-75
2023/06/29 10:46:18;;;;;;;12.35;8.95;;;29.10;61.10;;;;;;6057803;23;20030;-75
2023/06/29 10:49:00;;;;;;;12.32;8.38;;;29.70;62.80;;;;;;6058381;23;20018;-76
2023/06/29 10:51:26;;;;;;;13.27;9.43;;;30.50;60.20;;;;;;6058770;23;20057;-76
2023/06/29 10:53:51;;;;;;;9.95;7.70;;;30.50;61.90;;;;;;6058419;23;20134;-77
2023/06/29 10:56:30;;;;;;;12.95;8.43;;;31.20;59.40;;;;;;6034363;23;20019;-77
2023/06/29 10:58:56;;;;;;;15.77;8.95;;;31.80;58.30;;;;;;6058278;23;20479;-77
2023/06/29 11:01:21;;;;;;;14.23;9.32;;;31.90;58.10;;;;;;6058547;23;20039;-77
2023/06/29 11:03:47;;;;;;;16.55;10.23;;;32.00;59.10;;;;;;6034806;23;20326;-77
2023/06/29 11:06:12;;;;;;;13.38;9.40;;;32.10;59.10;;;;;;6058357;23;20011;-79
2023/06/29 11:08:38;;;;;;;18.10;11.20;;;32.70;58.40;;;;;;6035083;23;20007;-79
2023/06/29 11:11:14;;;;;;;13.55;10.13;;;33.40;58.60;;;;;;6057941;23;20011;-79
2023/06/29 11:13:39;;;;;;;11.82;10.07;;;34.50;55.90;;;;;;6034245;23;20034;-79
2023/06/29 11:16:05;;;;;;;17.88;9.32;;;35.10;54.90;;;;;;6033999;23;20648;-79
2023/06/29 11:18:30;;;;;;;13.43;9.38;;;35.20;53.70;;;;;;6057729;23;20017;-79
2023/06/29 11:20:59;;;;;;;12.65;10.00;;;34.40;53.80;;;;;;6057593;23;20093;-77
2023/06/29 11:23:24;;;;;;;13.77;9.75;;;34.60;55.80;;;;;;6057771;23;20025;-78
2023/06/29 11:25:50;;;;;;;11.68;8.05;;;35.00;53.20;;;;;;6034057;23;20019;-78
2023/06/29 11:28:15;;;;;;;17.02;10.02;;;35.10;52.50;;;;;;6033861;23;20142;-79
2023/06/29 11:30:41;;;;;;;11.93;9.43;;;35.50;52.00;;;;;;6033708;23;20038;-79
2023/06/29 11:33:09;;;;;;;13.45;10.00;;;35.40;51.80;;;;;;6058006;23;20022;-79
2023/06/29 11:35:34;;;;;;;11.68;9.43;;;35.20;51.80;;;;;;6058261;23;20697;-79
2023/06/29 11:38:00;;;;;;;14.68;10.40;;;35.20;51.60;;;;;;6057713;23;20026;-79
2023/06/29 11:40:26;;;;;;;12.73;8.30;;;35.20;51.60;;;;;;6034510;23;20046;-78
2023/06/29 11:42:53;;;;;;;13.45;9.27;;;34.90;51.00;;;;;;6057474;23;20090;-78
2023/06/29 11:45:20;;;;;;;14.38;9.27;;;34.60;50.80;;;;;;6057357;23;20026;-78
2023/06/29 11:47:51;;;;;;;12.95;8.18;;;34.40;51.20;;;;;;6033062;23;20346;-78
2023/06/29 11:50:17;;;;;;;13.63;8.82;;;34.00;51.80;;;;;;6057851;23;20035;-78
2023/06/29 11:52:44;;;;;;;13.25;8.60;;;33.70;52.10;;;;;;6057982;23;20015;-78
2023/06/29 11:55:14;;;;;;;20.00;12.40;;;33.50;52.30;;;;;;6058342;23;20403;-77
2023/06/29 11:57:40;;;;;;;18.52;11.88;;;33.20;52.70;;;;;;6034873;23;20433;-78
2023/06/29 12:00:29;;;;;;;20.75;11.13;;;32.90;53.20;;;;;;6010508;23;20011;-78
2023/06/29 12:02:54;;;;;;;16.27;11.02;;;32.30;54.10;;;;;;6081038;23;20398;-78
2023/06/29 12:05:25;;;;;;;14.88;11.00;;;32.00;54.70;;;;;;6057553;23;20046;-78
2023/06/29 12:07:51;;;;;;;16.85;11.90;;;31.40;56.50;;;;;;6057486;23;20353;-78
2023/06/29 12:10:20;;;;;;;13.98;11.55;;;31.00;58.10;;;;;;6057727;23;20014;-78
2023/06/29 12:12:48;;;;;;;16.02;11.55;;;30.70;59.20;;;;;;6033916;23;20029;-78
2023/06/29 12:15:18;;;;;;;18.90;12.32;;;30.20;60.60;;;;;;6033386;23;20054;-78
2023/06/29 12:17:45;;;;;;;20.45;13.35;;;29.90;61.50;;;;;;6033367;23;20026;-78
2023/06/29 12:20:20;;;;;;;15.95;10.20;;;29.50;62.40;;;;;;6056636;23;20015;-78
2023/06/29 12:22:47;;;;;;;19.08;12.57;;;29.10;62.50;;;;;;6033994;23;20618;-78
2023/06/29 12:25:14;;;;;;;18.08;12.43;;;28.90;63.10;;;;;;6057524;23;20405;-78
2023/06/29 12:27:41;;;;;;;18.70;12.82;;;28.60;63.30;;;;;;6057915;23;20015;-78
2023/06/29 12:30:08;;;;;;;19.90;13.13;;;28.60;63.50;;;;;;6057742;23;20026;-78
2023/06/29 12:32:34;;;;;;;20.52;11.05;;;28.50;64.40;;;;;;6034874;23;20079;-77
2023/06/29 12:34:59;;;;;;;20.02;13.57;;;28.60;63.90;;;;;;6033642;23;20656;-77
2023/06/29 12:37:25;;;;;;;14.75;10.77;;;28.70;63.70;;;;;;6058118;23;20126;-78
2023/06/29 12:39:51;;;;;;;15.88;10.45;;;28.80;63.40;;;;;;6057844;23;20075;-78
2023/06/29 12:42:17;;;;;;;12.88;9.30;;;28.90;63.10;;;;;;6033751;23;20019;-79
2023/06/29 12:44:42;;;;;;;14.52;10.80;;;28.90;62.70;;;;;;6055873;23;20117;-76